createdAt,value
2022-09-17T00:00:36.693Z,93.21
2022-09-17T00:06:08.844Z,93.66
2022-09-17T00:11:21.879Z,93.48
2022-09-17T00:16:31.957Z,93.07
2022-09-17T00:21:39.297Z,92.95
2022-09-17T00:26:48.357Z,93.37
2022-09-17T00:31:55.693Z,93.46
2022-09-17T00:44:03.070Z,93.98
2022-09-17T00:49:11.101Z,94.01
2022-09-17T00:54:14.687Z,94.03
2022-09-17T00:59:19.536Z,94.33
2022-09-17T01:04:27.934Z,94.60
2022-09-17T01:09:40.261Z,94.39
2022-09-17T01:14:58.346Z,94.59
2022-09-17T01:20:36.865Z,94.39
2022-09-17T01:25:56.879Z,94.53
2022-09-17T01:31:13.017Z,94.65
2022-09-17T01:36:29.315Z,94.75
2022-09-17T01:41:41.935Z,94.89
2022-09-17T01:46:50.306Z,94.78
2022-09-17T01:51:57.020Z,94.82
2022-09-17T01:57:05.240Z,94.80
2022-09-17T02:02:15.193Z,94.78
2022-09-17T02:07:22.209Z,94.77
2022-09-17T02:12:34.054Z,94.89
2022-09-17T02:17:43.611Z,95.05
2022-09-17T02:22:52.616Z,95.00
2022-09-17T02:28:03.582Z,94.95
2022-09-17T02:33:12.356Z,95.04
2022-09-17T02:38:28.752Z,95.27
2022-09-17T02:43:42.516Z,95.91
2022-09-17T02:49:16.943Z,95.72
2022-09-17T02:54:29.564Z,96.86
2022-09-17T02:59:41.990Z,96.83
2022-09-17T03:04:49.676Z,96.14
2022-09-17T03:09:53.265Z,95.72
2022-09-17T03:14:57.079Z,95.59
2022-09-17T03:20:01.193Z,95.86
2022-09-17T03:25:08.539Z,96.17
2022-09-17T03:30:13.145Z,96.81
2022-09-17T03:35:16.917Z,96.88
2022-09-17T03:40:20.540Z,96.88
2022-09-17T03:45:24.463Z,96.86
2022-09-17T03:50:28.123Z,96.96
2022-09-17T03:55:34.602Z,97.33
2022-09-17T04:00:43.103Z,97.41
2022-09-17T04:05:46.508Z,97.48
2022-09-17T04:10:51.449Z,97.48
2022-09-17T04:15:54.957Z,97.21
2022-09-17T04:20:58.476Z,97.24
2022-09-17T04:26:04.883Z,97.48
2022-09-17T04:31:08.826Z,97.47
2022-09-17T04:36:12.309Z,97.23
2022-09-17T04:41:15.730Z,97.52
2022-09-17T04:46:19.429Z,97.56
2022-09-17T04:51:23.154Z,97.25
2022-09-17T04:56:26.759Z,97.69
2022-09-17T05:01:30.373Z,97.66
2022-09-17T05:06:35.458Z,97.56
2022-09-17T05:11:38.949Z,97.11
2022-09-17T05:16:42.448Z,96.93
2022-09-17T05:21:46.118Z,96.36
2022-09-17T05:26:51.779Z,96.37
2022-09-17T05:31:55.853Z,96.19
2022-09-17T05:36:59.517Z,95.88
2022-09-17T05:42:03.865Z,95.56
2022-09-17T05:47:07.631Z,94.78
2022-09-17T05:52:11.247Z,93.89
2022-09-17T05:57:15.514Z,93.60
2022-09-17T06:02:19.249Z,92.97
2022-09-17T06:07:22.826Z,92.86
2022-09-17T06:12:26.336Z,92.45
2022-09-17T06:17:32.507Z,92.04
2022-09-17T06:22:36.243Z,91.68
2022-09-17T06:27:40.193Z,91.70
2022-09-17T06:32:44.396Z,91.57
2022-09-17T06:37:48.303Z,90.18
2022-09-17T06:42:56.513Z,89.46
2022-09-17T06:48:05.247Z,88.11
2022-09-17T06:53:10.096Z,87.70
2022-09-17T06:58:13.977Z,86.97
2022-09-17T07:03:22.471Z,85.73
2022-09-17T07:08:27.420Z,85.77
2022-09-17T07:13:31.418Z,85.18
2022-09-17T07:18:35.150Z,85.46
2022-09-17T07:23:38.757Z,85.64
2022-09-17T07:28:43.720Z,85.11
2022-09-17T07:33:47.332Z,84.47
2022-09-17T07:38:51.237Z,84.73
2022-09-17T07:43:55.673Z,84.82
2022-09-17T07:48:59.178Z,83.55
2022-09-17T07:54:03.723Z,83.80
2022-09-17T07:59:09.046Z,82.87
2022-09-17T08:04:12.755Z,81.36
2022-09-17T08:09:18.074Z,81.19
2022-09-17T08:14:24.583Z,81.03
2022-09-17T08:19:32.932Z,80.99
2022-09-17T08:24:37.325Z,80.27
2022-09-17T08:29:41.119Z,80.19
2022-09-17T08:34:44.640Z,79.84
2022-09-17T08:39:48.865Z,80.41
2022-09-17T08:44:59.953Z,79.43
2022-09-17T08:50:13.006Z,78.87
2022-09-17T08:55:31.140Z,78.46
2022-09-17T09:00:42.757Z,77.32
2022-09-17T09:05:52.133Z,75.99
2022-09-17T09:10:58.169Z,76.16
2022-09-17T09:16:05.549Z,75.98
2022-09-17T09:21:25.472Z,75.05
2022-09-17T09:26:44.148Z,75.82
2022-09-17T09:32:16.281Z,75.65
2022-09-17T09:37:25.840Z,75.14
2022-09-17T09:42:32.938Z,74.15
2022-09-17T09:47:54.417Z,74.67
2022-09-17T09:53:11.075Z,73.30
2022-09-17T09:58:24.439Z,73.73
2022-09-17T10:03:32.416Z,73.29
2022-09-17T10:08:38.594Z,72.61
2022-09-17T10:13:42.824Z,72.83
2022-09-17T10:18:48.187Z,72.75
2022-09-17T10:23:51.882Z,71.31
2022-09-17T10:28:58.545Z,70.99
2022-09-17T10:34:04.068Z,69.57
2022-09-17T10:39:33.590Z,69.03
2022-09-17T10:44:38.342Z,69.66
2022-09-17T10:49:44.627Z,69.57
2022-09-17T10:55:29.382Z,68.90
2022-09-17T11:00:44.173Z,68.01
2022-09-17T11:06:14.894Z,66.93
2022-09-17T11:11:32.356Z,68.50
2022-09-17T11:16:43.366Z,67.95
2022-09-17T11:21:53.880Z,68.80
2022-09-17T11:27:08.148Z,68.80
2022-09-17T11:32:20.571Z,69.36
2022-09-17T11:37:32.503Z,69.93
2022-09-17T11:42:45.221Z,71.19
2022-09-17T11:47:52.587Z,73.05
2022-09-17T11:53:05.567Z,73.18
2022-09-17T11:58:15.519Z,73.86
2022-09-17T12:03:26.096Z,74.22
2022-09-17T12:08:39.493Z,74.62
2022-09-17T12:13:48.104Z,74.57
2022-09-17T12:18:56.673Z,74.47
2022-09-17T12:24:07.629Z,74.62
2022-09-17T12:29:31.888Z,74.07
2022-09-17T12:34:49.023Z,74.58
2022-09-17T12:44:30.043Z,73.94
2022-09-17T12:49:50.232Z,74.05
2022-09-17T12:55:24.893Z,74.50
2022-09-17T13:00:34.806Z,73.92
2022-09-17T13:06:09.293Z,74.04
2022-09-17T13:11:50.389Z,74.20
2022-09-17T13:17:05.574Z,75.00
2022-09-17T13:22:22.094Z,75.05
2022-09-17T13:27:31.806Z,74.64
2022-09-17T13:32:55.405Z,75.17
2022-09-17T13:38:05.434Z,75.20
2022-09-17T13:43:14.794Z,74.82
2022-09-17T13:48:25.452Z,75.08
2022-09-17T13:53:33.009Z,74.88
2022-09-17T13:58:40.055Z,75.13
2022-09-17T14:03:57.302Z,75.91
2022-09-17T14:09:39.151Z,75.81
2022-09-17T14:14:54.416Z,75.09
2022-09-17T14:20:02.209Z,75.69
2022-09-17T14:25:24.340Z,76.32
2022-09-17T14:30:33.012Z,76.35
2022-09-17T14:35:43.444Z,76.40
2022-09-17T14:40:58.690Z,76.49
2022-09-17T14:46:08.311Z,76.70
2022-09-17T14:51:28.482Z,76.72
2022-09-17T14:56:46.819Z,76.93
2022-09-17T15:01:54.289Z,76.64
2022-09-17T15:07:13.563Z,76.56
2022-09-17T15:12:24.237Z,76.72
2022-09-17T15:17:33.608Z,77.12
2022-09-17T15:22:43.850Z,77.01
2022-09-17T15:27:52.994Z,77.11
2022-09-17T15:33:01.989Z,77.48
2022-09-17T15:38:24.091Z,77.80
2022-09-17T15:43:35.393Z,78.13
2022-09-17T15:48:42.374Z,78.03
2022-09-17T15:53:55.837Z,78.13
2022-09-17T15:59:05.927Z,78.49
2022-09-17T16:04:24.695Z,79.06
2022-09-17T16:09:48.008Z,78.74
2022-09-17T16:14:56.697Z,79.00
2022-09-17T16:20:10.522Z,79.20
2022-09-17T16:25:18.457Z,79.54
2022-09-17T16:30:27.050Z,80.03
2022-09-17T16:44:31.504Z,80.77
2022-09-17T16:49:38.778Z,81.09
2022-09-17T16:54:46.374Z,81.71
2022-09-17T16:59:53.378Z,81.90
2022-09-17T17:04:59.140Z,82.50
2022-09-17T17:10:09.206Z,82.59
2022-09-17T17:18:58.006Z,83.14
2022-09-17T17:24:07.148Z,83.47
2022-09-17T17:29:17.327Z,83.59
2022-09-17T17:34:30.057Z,83.87
2022-09-17T17:39:37.138Z,83.81
2022-09-17T17:44:42.804Z,83.91
2022-09-17T17:49:51.354Z,84.11
2022-09-17T17:55:00.295Z,84.31
2022-09-17T18:00:12.780Z,84.22
2022-09-17T18:05:20.317Z,84.05
2022-09-17T18:10:31.336Z,84.23
2022-09-17T18:15:39.905Z,84.65
2022-09-17T18:20:47.581Z,84.46
2022-09-17T18:25:59.812Z,84.62
2022-09-17T18:31:16.344Z,84.69
2022-09-17T18:36:23.688Z,84.86
2022-09-17T18:41:33.147Z,84.98
2022-09-17T18:46:43.957Z,85.58
2022-09-17T18:51:54.113Z,85.84
2022-09-17T18:57:04.471Z,85.80
2022-09-17T19:02:15.358Z,86.14
2022-09-17T19:07:25.354Z,86.02
2022-09-17T19:12:36.758Z,86.12
2022-09-17T19:17:46.630Z,86.32
2022-09-17T19:22:54.456Z,85.97
2022-09-17T19:28:01.997Z,86.14
2022-09-17T19:33:09.141Z,86.21
2022-09-17T19:38:19.341Z,86.21
2022-09-17T19:43:26.968Z,86.91
2022-09-17T19:48:36.029Z,87.04
2022-09-17T19:53:43.739Z,86.79
2022-09-17T19:58:51.588Z,87.29
2022-09-17T20:04:03.662Z,87.08
2022-09-17T20:09:16.922Z,87.42
2022-09-17T20:28:51.680Z,88.05
2022-09-17T20:34:02.204Z,88.18
2022-09-17T20:39:15.443Z,88.01
2022-09-17T20:44:30.768Z,88.25
2022-09-17T20:49:37.946Z,88.61
2022-09-17T20:54:48.115Z,88.64
2022-09-17T20:59:57.927Z,88.79
2022-09-17T21:05:11.538Z,88.44
2022-09-17T21:10:21.343Z,88.61
2022-09-17T21:15:29.630Z,88.65
2022-09-17T21:20:40.716Z,88.98
2022-09-17T21:25:52.433Z,88.54
2022-09-17T21:31:07.572Z,88.61
2022-09-17T21:36:16.285Z,88.70
2022-09-17T21:41:28.676Z,89.02
2022-09-17T21:46:44.114Z,89.34
2022-09-17T21:51:51.751Z,89.46
2022-09-17T21:57:00.797Z,89.71
2022-09-17T22:02:11.626Z,89.48
2022-09-17T22:07:18.774Z,89.10
2022-09-17T22:12:28.703Z,89.04
2022-09-17T22:17:34.007Z,88.69
2022-09-17T22:22:43.865Z,88.64
2022-09-17T22:28:16.894Z,88.50
2022-09-17T22:33:26.969Z,88.34
2022-09-17T22:38:35.616Z,88.47
2022-09-17T22:43:43.171Z,88.27
2022-09-17T22:48:50.887Z,87.91
2022-09-17T22:54:05.967Z,87.33
2022-09-17T22:59:13.163Z,87.78
2022-09-17T23:04:21.285Z,87.87
2022-09-17T23:09:30.880Z,88.10
2022-09-17T23:14:37.992Z,88.05
2022-09-17T23:19:44.937Z,88.40
2022-09-17T23:24:52.161Z,88.74
2022-09-17T23:29:59.393Z,89.37
2022-09-17T23:35:07.827Z,90.50
2022-09-17T23:40:17.462Z,91.28
2022-09-17T23:45:25.653Z,92.11
2022-09-17T23:50:32.660Z,93.21
2022-09-17T23:55:52.028Z,93.92
